createdAt,value
2023-05-25T00:02:15.710Z,3.30
2023-05-25T00:04:43.328Z,2.95
2023-05-25T00:07:10.725Z,2.92
2023-05-25T00:09:38.235Z,3.00
2023-05-25T00:12:06.393Z,3.17
2023-05-25T00:14:34.506Z,2.97
2023-05-25T00:17:04.798Z,2.95
2023-05-25T00:19:35.198Z,2.90
2023-05-25T00:22:02.673Z,3.20
2023-05-25T00:24:31.468Z,3.38
2023-05-25T00:27:00.203Z,3.45
2023-05-25T00:29:27.796Z,2.80
2023-05-25T00:31:55.411Z,3.00
2023-05-25T00:34:23.297Z,3.08
2023-05-25T00:36:50.926Z,3.30
2023-05-25T00:39:21.887Z,3.30
2023-05-25T00:41:50.248Z,3.50
2023-05-25T00:44:22.314Z,3.38
2023-05-25T00:46:54.475Z,3.25
2023-05-25T00:49:23.600Z,3.20
2023-05-25T00:51:53.628Z,3.35
2023-05-25T00:54:22.115Z,3.42
2023-05-25T00:57:04.638Z,3.25
2023-05-25T00:59:41.649Z,3.20
2023-05-25T01:02:17.688Z,3.08
2023-05-25T01:04:55.008Z,3.53
2023-05-25T01:07:27.284Z,3.20
2023-05-25T01:10:08.410Z,3.67
2023-05-25T01:12:41.327Z,3.50
2023-05-25T01:15:10.941Z,3.22
2023-05-25T01:17:39.413Z,3.13
2023-05-25T01:20:11.177Z,3.15
2023-05-25T01:22:58.508Z,3.00
2023-05-25T01:25:34.785Z,3.25
2023-05-25T01:28:11.689Z,3.40
2023-05-25T01:30:44.640Z,3.35
2023-05-25T01:33:12.853Z,3.05
2023-05-25T01:35:42.931Z,3.40
2023-05-25T01:38:11.255Z,3.47
2023-05-25T01:40:39.207Z,3.00
2023-05-25T01:43:07.084Z,3.50
2023-05-25T01:45:35.134Z,3.50
2023-05-25T01:49:02.967Z,3.67
2023-05-25T01:52:05.164Z,2.97
2023-05-25T01:54:52.026Z,2.83
2023-05-25T01:57:21.680Z,3.42
2023-05-25T01:59:51.686Z,3.05
2023-05-25T02:02:20.743Z,3.50
2023-05-25T02:04:48.825Z,3.45
2023-05-25T02:07:16.587Z,3.65
2023-05-25T02:09:43.971Z,3.83
2023-05-25T02:12:11.606Z,3.65
2023-05-25T02:14:39.113Z,3.40
2023-05-25T02:17:07.902Z,3.40
2023-05-25T02:19:36.522Z,3.30
2023-05-25T02:22:04.068Z,3.60
2023-05-25T02:24:31.685Z,3.38
2023-05-25T02:27:00.440Z,3.50
2023-05-25T02:29:28.077Z,3.47
2023-05-25T02:31:55.607Z,2.83
2023-05-25T02:34:23.189Z,3.45
2023-05-25T02:36:51.216Z,3.55
2023-05-25T02:39:18.674Z,3.88
2023-05-25T02:41:46.178Z,3.60
2023-05-25T02:44:13.655Z,3.78
2023-05-25T02:46:41.358Z,3.55
2023-05-25T02:49:08.905Z,3.65
2023-05-25T02:51:37.306Z,4.10
2023-05-25T02:54:04.837Z,3.63
2023-05-25T02:56:32.400Z,3.70
2023-05-25T02:58:59.811Z,4.03
2023-05-25T03:01:31.629Z,4.05
2023-05-25T03:03:59.458Z,3.85
2023-05-25T03:06:27.128Z,4.35
2023-05-25T03:08:54.724Z,4.10
2023-05-25T03:11:23.061Z,3.97
2023-05-25T03:13:52.513Z,3.63
2023-05-25T03:16:20.109Z,3.97
2023-05-25T03:18:47.625Z,3.70
2023-05-25T03:21:15.132Z,3.72
2023-05-25T03:23:42.677Z,3.60
2023-05-25T03:26:10.315Z,3.85
2023-05-25T03:28:37.781Z,4.03
2023-05-25T03:31:05.250Z,3.70
2023-05-25T03:33:33.704Z,3.47
2023-05-25T03:36:01.175Z,3.80
2023-05-25T03:38:28.578Z,3.40
2023-05-25T03:40:56.406Z,3.83
2023-05-25T03:43:24.067Z,3.10
2023-05-25T03:45:51.601Z,3.55
2023-05-25T03:48:19.124Z,4.00
2023-05-25T03:50:47.058Z,3.65
2023-05-25T03:53:14.527Z,3.58
2023-05-25T03:55:42.536Z,3.40
2023-05-25T03:58:10.884Z,3.53
2023-05-25T04:00:38.378Z,3.20
2023-05-25T04:03:07.126Z,3.35
2023-05-25T04:05:34.990Z,3.10
2023-05-25T04:08:02.813Z,3.00
2023-05-25T04:10:30.235Z,2.95
2023-05-25T04:12:57.686Z,3.03
2023-05-25T04:15:25.941Z,3.05
2023-05-25T04:17:53.574Z,2.80
2023-05-25T04:20:21.412Z,3.00
2023-05-25T04:22:50.227Z,2.83
2023-05-25T04:25:17.753Z,2.85
2023-05-25T04:27:46.860Z,3.00
2023-05-25T04:30:14.347Z,4.07
2023-05-25T04:32:43.361Z,3.33
2023-05-25T04:35:14.731Z,2.97
2023-05-25T04:37:42.506Z,2.67
2023-05-25T04:40:14.453Z,2.78
2023-05-25T04:42:42.261Z,2.70
2023-05-25T04:45:10.747Z,2.63
2023-05-25T04:47:41.602Z,2.67
2023-05-25T04:50:11.306Z,2.22
2023-05-25T04:52:38.701Z,2.90
2023-05-25T04:55:06.868Z,2.47
2023-05-25T04:57:34.522Z,2.40
2023-05-25T05:00:01.985Z,2.45
2023-05-25T05:02:29.609Z,2.92
2023-05-25T05:04:57.451Z,2.35
2023-05-25T05:07:24.975Z,2.55
2023-05-25T05:09:52.601Z,2.75
2023-05-25T05:12:20.254Z,2.67
2023-05-25T05:14:47.757Z,2.40
2023-05-25T05:17:15.276Z,2.70
2023-05-25T05:19:42.710Z,2.50
2023-05-25T05:22:10.265Z,2.65
2023-05-25T05:24:37.569Z,2.65
2023-05-25T05:27:05.506Z,2.25
2023-05-25T05:29:34.342Z,2.33
2023-05-25T05:32:01.762Z,2.55
2023-05-25T05:34:29.296Z,2.53
2023-05-25T05:36:58.813Z,2.38
2023-05-25T05:39:28.581Z,2.20
2023-05-25T05:41:56.695Z,2.63
2023-05-25T05:44:28.073Z,2.30
2023-05-25T05:47:01.238Z,2.42
2023-05-25T05:49:30.606Z,2.42
2023-05-25T05:51:58.610Z,2.60
2023-05-25T05:54:28.337Z,2.05
2023-05-25T05:56:56.414Z,2.17
2023-05-25T05:59:24.872Z,2.53
2023-05-25T06:01:52.699Z,3.47
2023-05-25T06:04:20.563Z,2.78
2023-05-25T06:06:48.565Z,2.38
2023-05-25T06:09:16.478Z,2.50
2023-05-25T06:11:44.543Z,2.55
2023-05-25T06:14:12.342Z,2.65
2023-05-25T06:16:40.071Z,2.25
2023-05-25T06:19:07.553Z,2.47
2023-05-25T06:21:34.890Z,2.67
2023-05-25T06:24:02.348Z,2.45
2023-05-25T06:26:29.856Z,2.42
2023-05-25T06:28:57.831Z,2.65
2023-05-25T06:31:25.383Z,2.20
2023-05-25T06:33:52.909Z,2.67
2023-05-25T06:36:20.376Z,2.63
2023-05-25T06:38:53.867Z,2.28
2023-05-25T06:41:21.374Z,2.97
2023-05-25T06:43:48.984Z,2.80
2023-05-25T06:46:18.666Z,2.58
2023-05-25T06:48:46.610Z,2.40
2023-05-25T06:51:14.324Z,2.58
2023-05-25T06:53:41.960Z,2.50
2023-05-25T06:56:09.718Z,2.53
2023-05-25T06:58:37.238Z,2.50
2023-05-25T07:01:04.877Z,2.75
2023-05-25T07:03:33.333Z,2.90
2023-05-25T07:06:01.053Z,2.47
2023-05-25T07:08:28.656Z,2.40
2023-05-25T07:10:56.223Z,2.70
2023-05-25T07:13:23.949Z,3.10
2023-05-25T07:15:53.020Z,2.78
2023-05-25T07:18:20.727Z,2.97
2023-05-25T07:20:48.945Z,3.05
2023-05-25T07:23:16.517Z,3.10
2023-05-25T07:25:44.176Z,3.15
2023-05-25T07:28:12.342Z,3.10
2023-05-25T07:30:41.916Z,2.67
2023-05-25T07:33:09.462Z,3.17
2023-05-25T07:35:36.917Z,3.22
2023-05-25T07:38:05.048Z,2.65
2023-05-25T07:40:32.711Z,3.08
2023-05-25T07:43:00.202Z,3.30
2023-05-25T07:45:27.738Z,3.35
2023-05-25T07:47:55.219Z,3.03
2023-05-25T07:50:23.919Z,3.22
2023-05-25T07:52:51.474Z,2.88
2023-05-25T07:55:20.684Z,3.08
2023-05-25T07:57:48.474Z,2.65
2023-05-25T08:00:16.639Z,3.13
2023-05-25T08:02:44.233Z,3.17
2023-05-25T08:05:13.141Z,3.08
2023-05-25T08:07:42.809Z,3.00
2023-05-25T08:10:10.832Z,2.80
2023-05-25T08:12:48.968Z,3.10
2023-05-25T08:15:18.095Z,2.83
2023-05-25T08:17:45.920Z,2.95
2023-05-25T08:20:14.629Z,3.47
2023-05-25T08:22:41.916Z,2.72
2023-05-25T08:25:10.114Z,3.33
2023-05-25T08:27:37.859Z,2.95
2023-05-25T08:30:06.461Z,3.42
2023-05-25T08:32:34.176Z,3.38
2023-05-25T08:35:02.746Z,3.10
2023-05-25T08:37:31.834Z,3.28
2023-05-25T08:40:01.531Z,3.13
2023-05-25T08:42:29.831Z,3.08
2023-05-25T08:44:57.546Z,2.92
2023-05-25T08:47:25.528Z,3.35
2023-05-25T08:49:56.247Z,2.83
2023-05-25T08:52:28.084Z,3.00
2023-05-25T08:57:52.981Z,2.63
2023-05-25T09:00:33.076Z,2.95
2023-05-25T09:03:16.150Z,3.08
2023-05-25T09:05:44.148Z,2.92
2023-05-25T09:08:12.371Z,3.25
2023-05-25T09:10:40.656Z,2.92
2023-05-25T09:15:38.388Z,2.70
2023-05-25T09:18:06.077Z,3.00
2023-05-25T09:20:33.657Z,2.83
2023-05-25T09:23:01.567Z,2.88
2023-05-25T09:25:31.912Z,3.08
2023-05-25T09:28:01.295Z,3.10
2023-05-25T09:30:33.179Z,2.63
2023-05-25T09:33:14.781Z,2.97
2023-05-25T09:35:42.332Z,3.00
2023-05-25T09:38:10.289Z,2.50
2023-05-25T09:40:39.273Z,2.70
2023-05-25T09:43:06.676Z,2.90
2023-05-25T09:45:35.503Z,3.00
2023-05-25T09:48:06.725Z,2.85
2023-05-25T09:50:34.462Z,2.70
2023-05-25T09:53:03.282Z,3.15
2023-05-25T09:55:48.173Z,2.70
2023-05-25T09:58:19.780Z,2.55
2023-05-25T10:00:47.617Z,2.55
2023-05-25T10:03:16.216Z,2.88
2023-05-25T10:05:43.664Z,2.92
2023-05-25T10:08:11.917Z,3.00
2023-05-25T10:10:41.766Z,2.42
2023-05-25T10:13:11.121Z,3.00
2023-05-25T10:15:42.317Z,3.00
2023-05-25T10:18:12.085Z,2.67
2023-05-25T10:20:40.432Z,2.83
2023-05-25T10:23:15.342Z,2.70
2023-05-25T10:25:48.536Z,3.00
2023-05-25T10:28:29.326Z,2.30
2023-05-25T10:30:59.222Z,2.90
2023-05-25T10:33:27.168Z,2.80
2023-05-25T10:36:03.195Z,2.85
2023-05-25T10:38:40.709Z,2.78
2023-05-25T10:41:11.530Z,2.60
2023-05-25T10:43:43.448Z,2.65
2023-05-25T10:48:40.146Z,2.45
2023-05-25T10:51:10.145Z,2.40
2023-05-25T10:53:39.856Z,2.47
2023-05-25T10:56:10.954Z,2.45
2023-05-25T10:58:44.611Z,2.80
2023-05-25T11:01:15.138Z,2.70
2023-05-25T11:03:48.687Z,2.95
2023-05-25T11:06:19.258Z,2.42
2023-05-25T11:08:59.258Z,2.90
2023-05-25T11:11:49.105Z,2.88
2023-05-25T11:14:32.331Z,2.80
2023-05-25T11:17:15.463Z,2.60
2023-05-25T11:19:56.435Z,2.60
2023-05-25T11:22:31.849Z,3.00
2023-05-25T11:25:05.486Z,2.40
2023-05-25T11:27:33.688Z,2.67
2023-05-25T11:30:01.542Z,2.58
2023-05-25T11:32:29.785Z,2.30
2023-05-25T11:34:58.962Z,2.15
2023-05-25T11:37:32.077Z,2.42
2023-05-25T11:39:59.691Z,2.53
2023-05-25T11:42:28.564Z,2.53
2023-05-25T11:44:56.505Z,2.55
2023-05-25T11:47:25.611Z,2.72
2023-05-25T11:49:56.682Z,2.53
2023-05-25T11:52:24.108Z,2.63
2023-05-25T11:54:53.482Z,2.53
2023-05-25T11:57:25.723Z,2.33
2023-05-25T11:59:57.668Z,2.20
2023-05-25T12:02:25.356Z,2.22
2023-05-25T12:05:02.235Z,2.35
2023-05-25T12:07:32.216Z,2.80
2023-05-25T12:10:16.923Z,2.40
2023-05-25T12:12:49.583Z,2.65
2023-05-25T12:15:23.383Z,2.10
2023-05-25T12:17:52.788Z,2.72
2023-05-25T12:20:21.276Z,2.50
2023-05-25T12:22:49.124Z,2.50
2023-05-25T12:25:22.140Z,2.75
2023-05-25T12:27:49.900Z,2.35
2023-05-25T12:30:17.451Z,2.45
2023-05-25T12:33:04.229Z,1.90
2023-05-25T12:35:47.026Z,2.33
2023-05-25T12:38:19.913Z,2.40
2023-05-25T12:40:48.036Z,2.10
2023-05-25T12:43:17.213Z,2.38
2023-05-25T12:45:44.788Z,2.00
2023-05-25T12:48:12.431Z,2.38
2023-05-25T12:50:41.049Z,2.20
2023-05-25T12:53:08.740Z,1.95
2023-05-25T12:55:36.763Z,2.70
2023-05-25T12:58:08.356Z,2.00
2023-05-25T13:00:41.571Z,2.20
2023-05-25T13:03:09.109Z,2.10
2023-05-25T13:05:38.540Z,2.05
2023-05-25T13:08:07.284Z,2.08
2023-05-25T13:10:38.723Z,2.28
2023-05-25T13:13:06.115Z,1.90
2023-05-25T13:15:33.919Z,2.00
2023-05-25T13:18:01.456Z,1.90
2023-05-25T13:20:32.996Z,2.00
2023-05-25T13:23:00.540Z,2.10
2023-05-25T13:25:28.418Z,2.25
2023-05-25T13:27:58.193Z,2.10
2023-05-25T13:30:26.734Z,2.13
2023-05-25T13:32:54.634Z,1.90
2023-05-25T13:35:41.954Z,2.00
2023-05-25T13:38:10.873Z,2.25
2023-05-25T13:40:38.455Z,2.13
2023-05-25T13:43:06.085Z,2.22
2023-05-25T13:45:34.147Z,2.08
2023-05-25T13:48:01.811Z,2.05
2023-05-25T13:50:29.591Z,1.83
2023-05-25T13:52:57.117Z,2.08
2023-05-25T13:55:24.539Z,2.00
2023-05-25T13:57:55.210Z,2.00
2023-05-25T14:00:23.026Z,2.08
2023-05-25T14:02:50.505Z,2.00
2023-05-25T14:05:20.106Z,1.65
2023-05-25T14:07:48.157Z,2.05
2023-05-25T14:10:16.011Z,2.20
2023-05-25T14:12:43.474Z,1.67
2023-05-25T14:15:11.705Z,1.70
2023-05-25T14:17:39.254Z,1.75
2023-05-25T14:20:08.052Z,2.20
2023-05-25T14:22:35.606Z,1.63
2023-05-25T14:25:34.322Z,1.85
2023-05-25T14:28:01.851Z,1.63
2023-05-25T14:30:29.363Z,1.98
2023-05-25T14:32:56.853Z,1.70
2023-05-25T14:35:24.869Z,1.42
2023-05-25T14:37:52.534Z,1.60
2023-05-25T14:40:20.489Z,1.80
2023-05-25T14:42:48.555Z,1.83
2023-05-25T14:45:16.872Z,1.83
2023-05-25T14:47:44.770Z,1.73
2023-05-25T14:50:12.443Z,1.60
2023-05-25T14:52:39.984Z,1.88
2023-05-25T14:55:09.764Z,2.00
2023-05-25T14:57:37.183Z,2.00
2023-05-25T15:00:05.084Z,1.60
2023-05-25T15:02:33.065Z,1.75
2023-05-25T15:05:00.834Z,1.90
2023-05-25T15:07:28.432Z,1.75
2023-05-25T15:09:55.885Z,1.70
2023-05-25T15:12:23.252Z,1.92
2023-05-25T15:14:50.704Z,1.77
2023-05-25T15:17:18.048Z,2.00
2023-05-25T15:19:45.763Z,1.83
2023-05-25T15:22:13.080Z,1.90
2023-05-25T15:24:40.676Z,2.25
2023-05-25T15:27:10.600Z,1.88
2023-05-25T15:29:38.032Z,1.90
2023-05-25T15:32:06.205Z,1.80
2023-05-25T15:34:34.676Z,1.80
2023-05-25T15:37:02.525Z,2.00
2023-05-25T15:39:30.010Z,2.22
2023-05-25T15:41:57.604Z,1.70
2023-05-25T15:44:25.096Z,2.10
2023-05-25T15:46:52.600Z,1.70
2023-05-25T15:49:20.501Z,1.67
2023-05-25T15:51:48.327Z,1.77
2023-05-25T15:54:15.699Z,2.17
2023-05-25T15:56:43.279Z,2.70
2023-05-25T15:59:12.578Z,2.05
2023-05-25T16:01:40.149Z,1.67
2023-05-25T16:04:08.291Z,1.80
2023-05-25T16:06:36.580Z,1.70
2023-05-25T16:09:04.531Z,1.80
2023-05-25T16:11:34.165Z,1.88
2023-05-25T16:14:01.891Z,1.67
2023-05-25T16:16:29.865Z,1.70
2023-05-25T16:18:57.320Z,1.92
2023-05-25T16:21:24.739Z,1.80
2023-05-25T16:23:52.148Z,2.13
2023-05-25T16:26:19.579Z,1.95
2023-05-25T16:28:46.956Z,1.70
2023-05-25T16:31:15.866Z,1.77
2023-05-25T16:33:44.012Z,1.58
2023-05-25T16:36:13.606Z,1.70
2023-05-25T16:38:41.919Z,1.77
2023-05-25T16:41:09.412Z,1.92
2023-05-25T16:43:36.818Z,1.75
2023-05-25T16:46:04.390Z,1.70
2023-05-25T16:48:31.824Z,1.95
2023-05-25T16:50:59.267Z,1.80
2023-05-25T16:53:26.786Z,2.05
2023-05-25T16:55:54.193Z,2.13
2023-05-25T16:58:21.617Z,1.80
2023-05-25T17:00:49.091Z,1.67
2023-05-25T17:03:16.635Z,1.70
2023-05-25T17:05:44.426Z,2.00
2023-05-25T17:08:12.013Z,1.80
2023-05-25T17:10:39.405Z,1.67
2023-05-25T17:13:06.745Z,1.75
2023-05-25T17:15:34.055Z,2.10
2023-05-25T17:18:01.464Z,1.90
2023-05-25T17:20:28.920Z,1.40
2023-05-25T17:22:56.749Z,1.67
2023-05-25T17:25:24.268Z,1.63
2023-05-25T17:27:51.694Z,2.15
2023-05-25T17:30:19.386Z,1.70
2023-05-25T17:32:47.231Z,1.75
2023-05-25T17:35:14.766Z,1.60
2023-05-25T17:37:42.480Z,2.10
2023-05-25T17:40:10.433Z,1.77
2023-05-25T17:42:37.724Z,1.88
2023-05-25T17:45:10.887Z,2.00
2023-05-25T17:47:38.688Z,1.95
2023-05-25T17:50:07.061Z,1.65
2023-05-25T17:52:34.428Z,1.70
2023-05-25T17:55:01.918Z,1.83
2023-05-25T17:57:29.276Z,1.73
2023-05-25T17:59:56.749Z,1.90
2023-05-25T18:02:24.187Z,1.80
2023-05-25T18:04:51.845Z,1.55
2023-05-25T18:07:20.625Z,1.77
2023-05-25T18:09:48.189Z,1.80
2023-05-25T18:12:15.660Z,1.98
2023-05-25T18:14:43.170Z,1.90
2023-05-25T18:17:10.874Z,2.28
2023-05-25T18:19:38.458Z,2.10
2023-05-25T18:22:06.013Z,1.75
2023-05-25T18:24:33.462Z,1.83
2023-05-25T18:27:03.865Z,1.60
2023-05-25T18:29:31.468Z,1.95
2023-05-25T18:31:58.876Z,2.10
2023-05-25T18:34:26.473Z,1.65
2023-05-25T18:36:53.753Z,1.75
2023-05-25T18:39:21.177Z,2.33
2023-05-25T18:41:49.174Z,1.88
2023-05-25T18:44:16.718Z,1.98
2023-05-25T18:46:46.141Z,2.05
2023-05-25T18:49:13.972Z,1.63
2023-05-25T18:51:41.421Z,1.80
2023-05-25T18:54:08.745Z,2.08
2023-05-25T18:56:36.069Z,2.80
2023-05-25T18:59:03.473Z,2.35
2023-05-25T19:01:30.970Z,2.30
2023-05-25T19:03:59.097Z,2.47
2023-05-25T19:06:27.529Z,2.10
2023-05-25T19:08:55.500Z,1.98
2023-05-25T19:11:22.912Z,1.90
2023-05-25T19:13:50.334Z,1.73
2023-05-25T19:16:17.681Z,1.77
2023-05-25T19:18:45.314Z,1.75
2023-05-25T19:21:12.684Z,2.03
2023-05-25T19:23:41.711Z,1.90
2023-05-25T19:26:09.049Z,2.08
2023-05-25T19:28:36.408Z,1.70
2023-05-25T19:31:03.947Z,2.03
2023-05-25T19:33:31.363Z,1.90
2023-05-25T19:35:58.725Z,1.92
2023-05-25T19:38:28.859Z,2.00
2023-05-25T19:41:01.974Z,1.80
2023-05-25T19:43:34.646Z,2.30
2023-05-25T19:46:03.947Z,2.00
2023-05-25T19:48:33.855Z,1.92
2023-05-25T19:51:01.326Z,2.33
2023-05-25T19:53:30.413Z,2.30
2023-05-25T19:55:57.973Z,2.05
2023-05-25T19:58:25.348Z,2.28
2023-05-25T20:00:52.976Z,2.40
2023-05-25T20:03:21.288Z,2.60
2023-05-25T20:05:48.884Z,2.38
2023-05-25T20:08:16.280Z,2.00
2023-05-25T20:10:45.263Z,2.25
2023-05-25T20:13:12.970Z,2.33
2023-05-25T20:15:40.430Z,2.25
2023-05-25T20:18:08.017Z,2.30
2023-05-25T20:20:35.827Z,2.20
2023-05-25T20:23:03.894Z,2.35
2023-05-25T20:25:31.845Z,2.08
2023-05-25T20:27:59.118Z,2.47
2023-05-25T20:30:27.219Z,2.67
2023-05-25T20:32:54.780Z,2.50
2023-05-25T20:35:22.779Z,2.42
2023-05-25T20:37:50.399Z,2.55
2023-05-25T20:40:17.875Z,2.60
2023-05-25T20:42:45.302Z,2.42
2023-05-25T20:45:12.754Z,3.00
2023-05-25T20:47:41.210Z,2.55
2023-05-25T20:50:09.050Z,2.33
2023-05-25T20:52:36.637Z,2.70
2023-05-25T20:55:04.490Z,2.40
2023-05-25T20:57:31.956Z,2.80
2023-05-25T21:00:00.116Z,2.83
2023-05-25T21:02:28.990Z,2.70
2023-05-25T21:04:56.736Z,2.60
2023-05-25T21:07:24.161Z,2.30
2023-05-25T21:09:52.010Z,2.10
2023-05-25T21:12:19.368Z,2.30
2023-05-25T21:14:46.625Z,2.33
2023-05-25T21:17:15.474Z,2.30
2023-05-25T21:19:42.859Z,2.17
2023-05-25T21:22:11.619Z,2.17
2023-05-25T21:24:39.518Z,1.90
2023-05-25T21:27:06.973Z,2.50
2023-05-25T21:29:34.417Z,2.30
2023-05-25T21:32:02.192Z,2.42
2023-05-25T21:34:29.690Z,2.08
2023-05-25T21:36:57.124Z,1.77
2023-05-25T21:39:24.500Z,1.85
2023-05-25T21:41:51.933Z,2.38
2023-05-25T21:44:19.308Z,2.00
2023-05-25T21:46:46.709Z,1.83
2023-05-25T21:49:14.197Z,2.55
2023-05-25T21:51:41.474Z,2.50
2023-05-25T21:54:08.897Z,2.05
2023-05-25T21:56:36.226Z,2.30
2023-05-25T21:59:04.849Z,2.53
2023-05-25T22:01:32.402Z,2.10
2023-05-25T22:03:59.789Z,1.90
2023-05-25T22:06:27.161Z,2.03
2023-05-25T22:08:54.622Z,2.00
2023-05-25T22:11:22.322Z,2.10
2023-05-25T22:13:49.705Z,2.20
2023-05-25T22:16:17.804Z,2.22
2023-05-25T22:18:47.213Z,2.00
2023-05-25T22:21:16.203Z,2.25
2023-05-25T22:23:44.034Z,2.35
2023-05-25T22:26:11.381Z,1.92
2023-05-25T22:28:38.767Z,2.10
2023-05-25T22:31:06.319Z,1.92
2023-05-25T22:33:33.756Z,2.10
2023-05-25T22:36:01.161Z,2.70
2023-05-25T22:38:28.633Z,2.17
2023-05-25T22:40:56.032Z,2.05
2023-05-25T22:43:23.421Z,2.40
2023-05-25T22:45:50.840Z,2.28
2023-05-25T22:48:18.314Z,2.30
2023-05-25T22:50:45.766Z,2.13
2023-05-25T22:53:13.047Z,2.10
2023-05-25T22:55:40.568Z,2.33
2023-05-25T22:58:08.108Z,2.75
2023-05-25T23:00:35.698Z,2.65
2023-05-25T23:03:04.536Z,2.47
2023-05-25T23:05:32.094Z,2.10
2023-05-25T23:07:59.665Z,2.78
2023-05-25T23:10:27.133Z,2.47
2023-05-25T23:12:55.018Z,2.25
2023-05-25T23:15:22.816Z,2.63
2023-05-25T23:17:50.233Z,2.42
2023-05-25T23:20:17.901Z,2.40
2023-05-25T23:22:45.458Z,2.40
2023-05-25T23:25:12.924Z,2.38
2023-05-25T23:27:40.561Z,2.53
2023-05-25T23:30:08.939Z,2.25
2023-05-25T23:32:36.997Z,2.25
2023-05-25T23:35:04.636Z,2.20
2023-05-25T23:37:32.468Z,2.20
2023-05-25T23:39:59.733Z,2.55
2023-05-25T23:42:28.857Z,2.08
2023-05-25T23:44:56.177Z,2.22
2023-05-25T23:47:23.667Z,2.20
2023-05-25T23:49:51.005Z,2.45
2023-05-25T23:52:18.307Z,2.33
2023-05-25T23:54:45.822Z,2.00
2023-05-25T23:57:13.257Z,2.38
2023-05-25T23:59:40.920Z,2.75
